createdAt,value
2018-09-10T00:02:10.684Z,63.87
2018-09-10T00:04:38.743Z,64.51
2018-09-10T00:07:06.804Z,64.40
2018-09-10T00:09:35.113Z,64.47
2018-09-10T00:12:03.364Z,64.98
2018-09-10T00:14:31.437Z,64.60
2018-09-10T00:16:59.517Z,64.70
2018-09-10T00:19:27.987Z,64.40
2018-09-10T00:21:56.154Z,64.21
2018-09-10T00:24:24.209Z,64.51
2018-09-10T00:26:52.512Z,64.54
2018-09-10T00:29:20.907Z,64.21
2018-09-10T00:31:48.971Z,64.08
2018-09-10T00:34:17.029Z,62.81
2018-09-10T00:36:45.094Z,63.16
2018-09-10T00:39:14.625Z,62.27
2018-09-10T00:41:43.088Z,62.89
2018-09-10T00:44:24.320Z,62.21
2018-09-10T00:46:52.367Z,62.13
2018-09-10T00:49:26.684Z,62.49
2018-09-10T00:51:54.923Z,61.99
2018-09-10T00:54:22.969Z,61.54
2018-09-10T00:56:51.020Z,61.93
2018-09-10T00:59:19.047Z,60.96
2018-09-10T01:01:47.108Z,61.58
2018-09-10T01:04:15.179Z,60.99
2018-09-10T01:06:43.209Z,60.86
2018-09-10T01:09:11.431Z,61.05
2018-09-10T01:11:40.009Z,60.95
2018-09-10T01:14:08.643Z,61.81
2018-09-10T01:16:36.700Z,61.90
2018-09-10T01:19:04.920Z,61.77
2018-09-10T01:21:32.992Z,61.30
2018-09-10T01:24:01.028Z,61.76
2018-09-10T01:26:29.090Z,61.31
2018-09-10T01:28:57.172Z,61.48
2018-09-10T01:31:25.608Z,61.45
2018-09-10T01:33:59.278Z,61.30
2018-09-10T01:36:27.358Z,61.30
2018-09-10T01:38:55.433Z,62.14
2018-09-10T01:41:23.524Z,62.49
2018-09-10T01:43:51.588Z,62.68
2018-09-10T01:46:19.996Z,62.67
2018-09-10T01:48:48.564Z,62.95
2018-09-10T01:51:16.616Z,63.22
2018-09-10T01:53:44.676Z,62.94
2018-09-10T01:56:12.727Z,62.79
2018-09-10T01:58:41.023Z,63.22
2018-09-10T02:01:09.092Z,63.27
2018-09-10T02:03:37.149Z,63.82
2018-09-10T02:06:05.491Z,63.44
2018-09-10T02:08:33.597Z,63.81
2018-09-10T02:11:01.974Z,63.23
2018-09-10T02:13:30.310Z,64.02
2018-09-10T02:15:58.414Z,63.73
2018-09-10T02:18:26.444Z,63.80
2018-09-10T02:20:54.501Z,63.90
2018-09-10T02:23:22.551Z,64.29
2018-09-10T02:25:50.608Z,64.31
2018-09-10T02:28:18.737Z,64.45
2018-09-10T02:30:49.465Z,64.68
2018-09-10T02:33:17.509Z,64.17
2018-09-10T02:35:45.708Z,64.31
2018-09-10T02:38:13.773Z,64.89
2018-09-10T02:40:42.141Z,64.85
2018-09-10T02:43:10.207Z,65.21
2018-09-10T02:45:38.226Z,65.43
2018-09-10T02:48:06.282Z,65.30
2018-09-10T02:50:34.317Z,64.76
2018-09-10T02:53:02.377Z,65.23
2018-09-10T02:55:30.728Z,65.66
2018-09-10T02:57:58.776Z,65.59
2018-09-10T03:00:26.828Z,65.68
2018-09-10T03:02:55.379Z,65.08
2018-09-10T03:05:23.691Z,65.05
2018-09-10T03:07:51.775Z,65.27
2018-09-10T03:10:22.248Z,65.03
2018-09-10T03:12:50.940Z,65.80
2018-09-10T03:15:18.993Z,65.89
2018-09-10T03:17:47.055Z,65.56
2018-09-10T03:20:15.091Z,65.93
2018-09-10T03:22:43.385Z,65.63
2018-09-10T03:25:11.521Z,65.41
2018-09-10T03:27:39.589Z,66.15
2018-09-10T03:30:07.632Z,65.65
2018-09-10T03:32:35.687Z,66.21
2018-09-10T03:35:03.988Z,66.55
2018-09-10T03:37:32.088Z,66.32
2018-09-10T03:40:00.133Z,65.92
2018-09-10T03:42:28.175Z,66.18
2018-09-10T03:44:56.225Z,65.98
2018-09-10T03:47:24.751Z,67.17
2018-09-10T03:49:53.028Z,66.39
2018-09-10T03:52:21.400Z,66.82
2018-09-10T03:54:49.577Z,66.10
2018-09-10T03:57:17.748Z,66.15
2018-09-10T03:59:45.804Z,66.30
2018-09-10T04:02:14.024Z,66.60
2018-09-10T04:04:42.126Z,66.56
2018-09-10T04:07:10.174Z,66.03
2018-09-10T04:09:38.264Z,66.59
2018-09-10T04:12:06.481Z,67.39
2018-09-10T04:14:34.552Z,66.46
2018-09-10T04:17:02.653Z,67.14
2018-09-10T04:19:30.730Z,66.80
2018-09-10T04:21:58.748Z,66.44
2018-09-10T04:24:26.860Z,67.13
2018-09-10T04:26:54.913Z,66.80
2018-09-10T04:29:22.980Z,67.05
2018-09-10T04:31:51.024Z,66.55
2018-09-10T04:34:19.095Z,66.74
2018-09-10T04:36:47.342Z,67.45
2018-09-10T04:39:15.384Z,67.31
2018-09-10T04:41:43.963Z,67.76
2018-09-10T04:44:12.033Z,67.21
2018-09-10T04:46:40.612Z,67.37
2018-09-10T04:49:09.622Z,67.80
2018-09-10T04:51:37.660Z,66.90
2018-09-10T04:54:06.812Z,68.13
2018-09-10T04:56:34.982Z,67.82
2018-09-10T04:59:04.455Z,68.31
2018-09-10T05:01:32.693Z,67.94
2018-09-10T05:04:00.794Z,67.39
2018-09-10T05:09:19.153Z,68.02
2018-09-10T05:11:47.234Z,68.08
2018-09-10T05:14:15.284Z,68.67
2018-09-10T05:17:01.492Z,68.17
2018-09-10T05:19:30.368Z,68.74
2018-09-10T05:22:00.738Z,68.93
2018-09-10T05:24:29.194Z,69.52
2018-09-10T05:26:57.273Z,69.33
2018-09-10T05:29:25.339Z,69.49
2018-09-10T05:31:53.387Z,70.41
2018-09-10T05:34:21.444Z,70.29
2018-09-10T05:36:49.795Z,69.51
2018-09-10T05:39:17.851Z,69.00
2018-09-10T05:41:45.964Z,70.22
2018-09-10T05:44:13.960Z,70.22
2018-09-10T05:46:42.000Z,70.92
2018-09-10T05:49:10.025Z,70.56
2018-09-10T05:51:38.149Z,70.78
2018-09-10T05:54:06.381Z,70.79
2018-09-10T05:56:34.412Z,71.21
2018-09-10T05:59:03.250Z,71.52
2018-09-10T06:01:31.293Z,71.18
2018-09-10T06:03:59.321Z,71.38
2018-09-10T06:06:27.516Z,71.66
2018-09-10T06:08:55.721Z,71.53
2018-09-10T06:11:23.748Z,71.26
2018-09-10T06:13:51.792Z,71.90
2018-09-10T06:16:19.918Z,71.74
2018-09-10T06:18:48.480Z,71.12
2018-09-10T06:21:16.539Z,71.79
2018-09-10T06:23:44.573Z,72.65
2018-09-10T06:26:12.820Z,72.81
2018-09-10T06:28:41.069Z,72.65
2018-09-10T06:31:09.446Z,72.32
2018-09-10T06:33:37.612Z,72.68
2018-09-10T06:36:05.681Z,72.10
2018-09-10T06:38:33.791Z,71.99
2018-09-10T06:41:01.821Z,72.18
2018-09-10T06:43:29.852Z,72.13
2018-09-10T06:45:57.949Z,72.05
2018-09-10T06:48:26.068Z,72.28
2018-09-10T06:50:54.112Z,71.70
2018-09-10T06:53:22.194Z,72.76
2018-09-10T06:55:50.485Z,72.48
2018-09-10T06:58:18.528Z,72.54
2018-09-10T07:00:46.568Z,72.48
2018-09-10T07:03:14.794Z,72.74
2018-09-10T07:05:42.841Z,73.00
2018-09-10T07:08:10.944Z,72.13
2018-09-10T07:10:38.995Z,72.28
2018-09-10T07:13:07.125Z,72.92
2018-09-10T07:15:35.328Z,72.57
2018-09-10T07:18:03.378Z,72.62
2018-09-10T07:20:31.404Z,72.38
2018-09-10T07:22:59.459Z,72.44
2018-09-10T07:25:27.508Z,72.61
2018-09-10T07:27:55.548Z,72.63
2018-09-10T07:30:23.609Z,71.77
2018-09-10T07:32:51.628Z,71.66
2018-09-10T07:35:19.691Z,72.34
2018-09-10T07:37:47.773Z,72.58
2018-09-10T07:40:15.908Z,72.36
2018-09-10T07:42:43.985Z,71.51
2018-09-10T07:45:12.036Z,71.79
2018-09-10T07:47:40.136Z,71.17
2018-09-10T07:50:08.202Z,70.89
2018-09-10T07:52:36.393Z,71.67
2018-09-10T07:55:05.442Z,71.56
2018-09-10T07:57:33.489Z,71.41
2018-09-10T08:00:01.925Z,70.65
2018-09-10T08:02:30.120Z,70.55
2018-09-10T08:04:58.174Z,70.10
2018-09-10T08:07:26.202Z,70.19
2018-09-10T08:09:54.752Z,70.24
2018-09-10T08:12:22.857Z,70.70
2018-09-10T08:14:50.919Z,69.79
2018-09-10T08:17:18.953Z,69.97
2018-09-10T08:19:46.995Z,69.61
2018-09-10T08:22:15.192Z,69.96
2018-09-10T08:24:43.313Z,70.35
2018-09-10T08:27:11.366Z,69.70
2018-09-10T08:29:39.421Z,70.09
2018-09-10T08:32:07.512Z,69.79
2018-09-10T08:34:35.584Z,69.54
2018-09-10T08:37:05.056Z,70.37
2018-09-10T08:39:33.155Z,69.97
2018-09-10T08:42:01.195Z,69.64
2018-09-10T08:44:29.584Z,68.98
2018-09-10T08:46:57.740Z,69.72
2018-09-10T08:49:25.791Z,69.65
2018-09-10T08:51:54.208Z,68.91
2018-09-10T08:54:22.349Z,68.71
2018-09-10T08:56:50.269Z,67.70
2018-09-10T08:59:18.313Z,67.87
2018-09-10T09:01:46.553Z,67.85
2018-09-10T09:04:14.576Z,67.50
2018-09-10T09:06:42.613Z,67.26
2018-09-10T09:09:10.728Z,67.40
2018-09-10T09:11:38.767Z,67.51
2018-09-10T09:14:06.817Z,66.94
2018-09-10T09:16:34.895Z,67.17
2018-09-10T09:19:02.944Z,67.22
2018-09-10T09:21:30.976Z,67.76
2018-09-10T09:23:59.032Z,66.79
2018-09-10T09:26:27.068Z,67.19
2018-09-10T09:28:55.116Z,66.78
2018-09-10T09:31:23.178Z,66.44
2018-09-10T09:33:51.215Z,65.89
2018-09-10T09:36:24.574Z,65.91
2018-09-10T09:41:02.621Z,65.39
2018-09-10T09:43:36.338Z,66.11
2018-09-10T09:46:08.759Z,66.20
2018-09-10T09:48:36.820Z,64.91
2018-09-10T09:51:05.689Z,65.88
2018-09-10T09:53:35.224Z,65.09
2018-09-10T09:56:03.432Z,66.08
2018-09-10T09:58:31.455Z,65.99
2018-09-10T10:01:04.797Z,64.39
2018-09-10T10:03:38.314Z,64.65
2018-09-10T10:06:06.468Z,64.34
2018-09-10T10:08:34.613Z,63.25
2018-09-10T10:11:02.665Z,63.49
2018-09-10T10:13:30.687Z,62.38
2018-09-10T10:15:58.717Z,63.48
2018-09-10T10:18:26.736Z,61.75
2018-09-10T10:20:54.803Z,61.23
2018-09-10T10:23:22.837Z,61.35
2018-09-10T10:25:51.052Z,62.12
2018-09-10T10:28:19.124Z,60.93
2018-09-10T10:30:47.134Z,61.00
2018-09-10T10:33:15.187Z,60.26
2018-09-10T10:35:43.282Z,60.53
2018-09-10T10:38:11.310Z,59.48
2018-09-10T10:40:39.345Z,59.26
2018-09-10T10:43:07.373Z,57.99
2018-09-10T10:45:35.401Z,59.00
2018-09-10T10:48:03.440Z,59.04
2018-09-10T10:50:31.454Z,58.86
2018-09-10T10:52:59.484Z,57.81
2018-09-10T10:55:27.514Z,57.30
2018-09-10T10:57:55.541Z,58.28
2018-09-10T11:00:23.574Z,56.83
2018-09-10T11:02:51.599Z,58.04
2018-09-10T11:05:19.620Z,58.52
2018-09-10T11:07:47.652Z,57.47
2018-09-10T11:10:15.884Z,56.57
2018-09-10T11:12:50.624Z,55.78
2018-09-10T11:15:18.964Z,56.81
2018-09-10T11:17:46.992Z,57.58
2018-09-10T11:20:15.025Z,56.13
2018-09-10T11:22:43.320Z,54.64
2018-09-10T11:25:11.350Z,54.89
2018-09-10T11:27:39.439Z,55.02
2018-09-10T11:30:07.437Z,55.15
2018-09-10T11:32:35.559Z,54.54
2018-09-10T11:35:03.597Z,55.37
2018-09-10T11:37:31.633Z,55.81
2018-09-10T11:39:59.679Z,56.35
2018-09-10T11:42:27.705Z,54.92
2018-09-10T11:44:55.727Z,54.71
2018-09-10T11:47:23.843Z,55.55
2018-09-10T11:49:51.891Z,54.46
2018-09-10T11:52:20.104Z,56.05
2018-09-10T11:54:48.148Z,56.13
2018-09-10T11:57:17.111Z,55.26
2018-09-10T11:59:45.149Z,54.04
2018-09-10T12:02:13.324Z,54.61
2018-09-10T12:04:41.257Z,55.26
2018-09-10T12:07:10.209Z,55.12
2018-09-10T12:09:38.317Z,55.33
2018-09-10T12:12:06.571Z,54.83
2018-09-10T12:14:34.653Z,55.49
2018-09-10T12:17:02.672Z,55.07
2018-09-10T12:19:30.928Z,52.53
2018-09-10T12:21:58.992Z,54.22
2018-09-10T12:24:27.037Z,53.25
2018-09-10T12:26:55.079Z,52.90
2018-09-10T12:29:23.112Z,53.02
2018-09-10T12:32:03.240Z,53.30
2018-09-10T12:34:31.273Z,54.13
2018-09-10T12:36:59.300Z,52.77
2018-09-10T12:39:27.463Z,53.98
2018-09-10T12:41:55.556Z,52.61
2018-09-10T12:44:23.609Z,52.78
2018-09-10T12:46:51.687Z,53.59
2018-09-10T12:49:20.049Z,52.64
2018-09-10T12:51:48.102Z,53.70
2018-09-10T12:54:16.112Z,52.58
2018-09-10T12:56:44.556Z,53.12
2018-09-10T12:59:12.580Z,51.84
2018-09-10T13:01:40.638Z,51.27
2018-09-10T13:04:08.679Z,51.72
2018-09-10T13:06:36.704Z,51.69
2018-09-10T13:09:06.488Z,52.89
2018-09-10T13:11:34.617Z,52.51
2018-09-10T13:14:02.883Z,51.48
2018-09-10T13:16:30.945Z,50.82
2018-09-10T13:18:58.973Z,51.61
2018-09-10T13:21:27.003Z,50.58
2018-09-10T13:23:55.058Z,50.32
2018-09-10T13:26:23.097Z,50.80
2018-09-10T13:28:51.138Z,50.60
2018-09-10T13:31:19.165Z,51.67
2018-09-10T13:33:47.366Z,51.87
2018-09-10T13:36:15.401Z,51.94
2018-09-10T13:38:43.432Z,52.11
2018-09-10T13:41:11.462Z,52.14
2018-09-10T13:43:39.578Z,53.09
2018-09-10T13:46:07.648Z,51.76
2018-09-10T13:48:35.696Z,51.62
2018-09-10T13:51:03.749Z,50.99
2018-09-10T13:53:31.765Z,52.08
2018-09-10T13:55:59.792Z,51.55
2018-09-10T13:58:27.831Z,51.02
2018-09-10T14:00:55.961Z,52.26
2018-09-10T14:03:24.000Z,51.00
2018-09-10T14:05:52.056Z,51.38
2018-09-10T14:08:20.100Z,51.88
2018-09-10T14:10:48.356Z,51.36
2018-09-10T14:13:16.316Z,51.27
2018-09-10T14:15:44.354Z,51.03
2018-09-10T14:18:12.681Z,51.55
2018-09-10T14:20:40.821Z,51.75
2018-09-10T14:23:08.876Z,52.45
2018-09-10T14:25:36.897Z,52.52
2018-09-10T14:28:05.294Z,53.00
2018-09-10T14:30:33.326Z,53.63
2018-09-10T14:33:01.494Z,53.13
2018-09-10T14:35:29.533Z,52.89
2018-09-10T14:37:57.579Z,53.06
2018-09-10T14:40:25.616Z,52.94
2018-09-10T14:42:53.663Z,52.73
2018-09-10T14:45:21.750Z,52.81
2018-09-10T14:47:49.788Z,52.56
2018-09-10T14:50:17.871Z,52.74
2018-09-10T14:52:45.853Z,53.41
2018-09-10T14:55:14.144Z,52.88
2018-09-10T14:57:42.192Z,53.70
2018-09-10T15:00:14.456Z,53.36
2018-09-10T15:02:42.920Z,53.65
2018-09-10T15:08:03.294Z,53.47
2018-09-10T15:10:31.320Z,54.29
2018-09-10T15:12:59.366Z,54.10
2018-09-10T15:15:27.772Z,54.68
2018-09-10T15:17:55.791Z,53.87
2018-09-10T15:20:24.035Z,54.30
2018-09-10T15:22:52.204Z,54.38
2018-09-10T15:25:20.229Z,54.37
2018-09-10T15:27:48.281Z,54.38
2018-09-10T15:30:16.456Z,55.30
2018-09-10T15:32:44.493Z,54.16
2018-09-10T15:35:12.526Z,54.34
2018-09-10T15:37:40.562Z,55.02
2018-09-10T15:40:08.605Z,54.80
2018-09-10T15:42:36.649Z,54.67
2018-09-10T15:45:04.751Z,54.97
2018-09-10T15:47:32.761Z,55.38
2018-09-10T15:50:00.780Z,55.22
2018-09-10T15:52:28.821Z,55.68
2018-09-10T15:54:56.866Z,55.93
2018-09-10T15:57:25.240Z,54.88
2018-09-10T15:59:53.239Z,55.30
2018-09-10T16:02:21.345Z,55.15
2018-09-10T16:04:49.928Z,55.73
2018-09-10T16:07:18.016Z,56.04
2018-09-10T16:09:46.237Z,54.99
2018-09-10T16:12:15.584Z,55.43
2018-09-10T16:14:43.819Z,54.69
2018-09-10T16:17:12.431Z,55.48
2018-09-10T16:19:40.472Z,55.69
2018-09-10T16:22:08.525Z,55.75
2018-09-10T16:24:36.557Z,55.64
2018-09-10T16:27:05.082Z,55.56
2018-09-10T16:29:33.127Z,55.54
2018-09-10T16:32:01.176Z,56.25
2018-09-10T16:34:29.273Z,56.01
2018-09-10T16:36:57.342Z,55.60
2018-09-10T16:39:25.397Z,55.23
2018-09-10T16:41:53.505Z,55.65
2018-09-10T16:44:21.533Z,55.31
2018-09-10T16:46:49.676Z,55.55
2018-09-10T16:49:17.745Z,55.75
2018-09-10T16:51:45.785Z,55.58
2018-09-10T16:54:14.098Z,56.40
2018-09-10T16:56:42.043Z,55.49
2018-09-10T16:59:10.107Z,56.30
2018-09-10T17:01:38.328Z,56.42
2018-09-10T17:04:06.445Z,56.18
2018-09-10T17:06:41.167Z,56.34
2018-09-10T17:09:09.332Z,56.68
2018-09-10T17:11:37.396Z,55.97
2018-09-10T17:14:05.791Z,56.36
2018-09-10T17:16:33.828Z,56.32
2018-09-10T17:19:02.029Z,55.68
2018-09-10T17:21:30.094Z,56.34
2018-09-10T17:23:59.372Z,56.41
2018-09-10T17:26:27.680Z,56.24
2018-09-10T17:28:55.765Z,56.73
2018-09-10T17:31:23.801Z,56.53
2018-09-10T17:33:52.020Z,57.17
2018-09-10T17:36:20.113Z,56.82
2018-09-10T17:38:48.183Z,56.71
2018-09-10T17:41:16.398Z,57.08
2018-09-10T17:43:44.457Z,57.56
2018-09-10T17:46:12.556Z,57.70
2018-09-10T17:48:40.610Z,58.50
2018-09-10T17:51:08.831Z,58.10
2018-09-10T17:53:37.134Z,58.11
2018-09-10T17:56:05.357Z,57.94
2018-09-10T17:58:33.446Z,58.98
2018-09-10T18:01:01.740Z,59.00
2018-09-10T18:03:29.801Z,59.02
2018-09-10T18:05:57.871Z,59.44
2018-09-10T18:08:26.000Z,58.73
2018-09-10T18:10:54.113Z,59.36
2018-09-10T18:13:22.185Z,59.23
2018-09-10T18:15:50.205Z,59.92
2018-09-10T18:18:18.252Z,60.26
2018-09-10T18:20:46.294Z,59.61
2018-09-10T18:23:14.358Z,59.97
2018-09-10T18:25:42.389Z,60.99
2018-09-10T18:28:10.572Z,60.96
2018-09-10T18:30:38.997Z,60.31
2018-09-10T18:33:07.066Z,60.71
2018-09-10T18:35:35.144Z,61.22
2018-09-10T18:38:03.195Z,61.01
2018-09-10T18:40:31.257Z,61.17
2018-09-10T18:42:59.345Z,61.54
2018-09-10T18:45:27.423Z,61.31
2018-09-10T18:47:55.461Z,62.05
2018-09-10T18:50:23.517Z,61.76
2018-09-10T18:52:51.848Z,62.36
2018-09-10T18:55:19.892Z,62.26
2018-09-10T18:57:48.620Z,61.56
2018-09-10T19:00:16.965Z,62.80
2018-09-10T19:02:45.064Z,62.14
2018-09-10T19:05:13.273Z,62.89
2018-09-10T19:07:41.517Z,62.20
2018-09-10T19:10:09.950Z,62.52
2018-09-10T19:12:38.394Z,62.84
2018-09-10T19:15:06.636Z,62.59
2018-09-10T19:17:34.772Z,63.30
2018-09-10T19:20:03.044Z,63.26
2018-09-10T19:22:45.645Z,62.60
2018-09-10T19:25:13.696Z,63.70
2018-09-10T19:27:41.762Z,63.56
2018-09-10T19:30:10.157Z,63.06
2018-09-10T19:32:38.507Z,63.86
2018-09-10T19:35:06.545Z,63.12
2018-09-10T19:37:34.667Z,63.69
2018-09-10T19:40:02.718Z,63.68
2018-09-10T19:42:30.778Z,63.73
2018-09-10T19:44:58.840Z,64.30
2018-09-10T19:47:26.952Z,64.08
2018-09-10T19:49:55.026Z,64.39
2018-09-10T19:52:23.076Z,64.79
2018-09-10T19:54:51.157Z,64.14
2018-09-10T19:57:19.329Z,64.10
2018-09-10T19:59:47.407Z,64.12
2018-09-10T20:02:15.458Z,63.95
2018-09-10T20:04:43.521Z,64.15
2018-09-10T20:07:11.723Z,64.78
2018-09-10T20:09:39.849Z,64.06
2018-09-10T20:12:07.861Z,63.95
2018-09-10T20:14:36.010Z,65.11
2018-09-10T20:17:04.089Z,64.16
2018-09-10T20:19:32.161Z,64.12
2018-09-10T20:22:00.239Z,64.61
2018-09-10T20:24:28.293Z,64.27
2018-09-10T20:26:56.336Z,64.69
2018-09-10T20:29:24.381Z,65.25
2018-09-10T20:31:52.439Z,65.44
2018-09-10T20:34:20.586Z,64.81
2018-09-10T20:36:48.631Z,65.52
2018-09-10T20:39:16.687Z,65.64
2018-09-10T20:41:44.717Z,65.56
2018-09-10T20:44:12.784Z,65.74
2018-09-10T20:46:40.845Z,66.05
2018-09-10T20:49:08.896Z,65.08
2018-09-10T20:51:37.185Z,65.19
2018-09-10T20:54:05.267Z,65.42
2018-09-10T20:56:33.326Z,66.18
2018-09-10T20:59:02.001Z,66.08
2018-09-10T21:01:30.273Z,65.70
2018-09-10T21:03:58.312Z,65.51
2018-09-10T21:06:26.400Z,66.12
2018-09-10T21:08:54.499Z,65.43
2018-09-10T21:11:22.712Z,65.42
2018-09-10T21:13:51.095Z,65.51
2018-09-10T21:16:19.144Z,65.18
2018-09-10T21:18:47.372Z,65.15
2018-09-10T21:21:15.421Z,65.62
2018-09-10T21:23:43.660Z,65.71
2018-09-10T21:26:11.907Z,64.56
2018-09-10T21:28:39.936Z,64.42
2018-09-10T21:31:07.939Z,65.39
2018-09-10T21:33:36.219Z,65.20
2018-09-10T21:36:05.216Z,65.37
2018-09-10T21:38:33.227Z,64.50
2018-09-10T21:41:01.252Z,64.51
2018-09-10T21:43:29.410Z,65.28
2018-09-10T21:45:57.428Z,64.68
2018-09-10T21:48:25.595Z,65.12
2018-09-10T21:50:53.656Z,65.01
2018-09-10T21:53:21.943Z,65.08
2018-09-10T21:55:50.001Z,64.93
2018-09-10T21:58:18.032Z,64.43
2018-09-10T22:00:51.547Z,64.75
2018-09-10T22:03:19.928Z,64.00
2018-09-10T22:05:47.963Z,65.26
2018-09-10T22:08:16.274Z,64.34
2018-09-10T22:10:44.385Z,64.88
2018-09-10T22:13:12.700Z,64.38
2018-09-10T22:15:41.295Z,64.86
2018-09-10T22:18:09.328Z,64.33
2018-09-10T22:20:37.424Z,65.42
2018-09-10T22:23:05.645Z,65.48
2018-09-10T22:25:33.736Z,65.35
2018-09-10T22:28:01.780Z,65.07
2018-09-10T22:30:29.849Z,65.42
2018-09-10T22:32:57.892Z,66.14
2018-09-10T22:35:25.907Z,65.94
2018-09-10T22:37:53.963Z,65.85
2018-09-10T22:40:21.992Z,66.25
2018-09-10T22:42:50.051Z,66.71
2018-09-10T22:45:18.620Z,66.27
2018-09-10T22:47:46.742Z,66.98
2018-09-10T22:50:15.316Z,66.17
2018-09-10T22:52:43.338Z,66.48
2018-09-10T22:55:11.477Z,66.85
2018-09-10T22:57:39.544Z,66.92
2018-09-10T23:00:07.937Z,66.37
2018-09-10T23:02:36.094Z,67.35
2018-09-10T23:05:04.144Z,67.37
2018-09-10T23:07:32.164Z,67.50
2018-09-10T23:10:00.224Z,66.95
2018-09-10T23:12:28.244Z,66.92
2018-09-10T23:14:56.294Z,67.87
2018-09-10T23:17:24.316Z,67.75
2018-09-10T23:19:52.788Z,67.84
2018-09-10T23:22:20.877Z,68.08
2018-09-10T23:24:48.897Z,67.18
2018-09-10T23:27:16.918Z,68.59
2018-09-10T23:29:44.945Z,67.64
2018-09-10T23:32:12.960Z,68.13
2018-09-10T23:34:41.111Z,67.79
2018-09-10T23:37:09.160Z,68.70
2018-09-10T23:39:37.380Z,68.31
2018-09-10T23:42:05.505Z,68.11
2018-09-10T23:44:33.736Z,68.40
2018-09-10T23:47:01.794Z,67.86
2018-09-10T23:49:29.976Z,69.03
2018-09-10T23:51:58.003Z,68.45
2018-09-10T23:54:26.096Z,68.42
2018-09-10T23:56:54.184Z,68.96
2018-09-10T23:59:22.604Z,68.54
